createdAt,value
2022-09-11T00:18:46.859Z,15.19
2022-09-11T00:21:15.288Z,15.17
2022-09-11T00:23:43.641Z,15.17
2022-09-11T00:26:12.269Z,15.18
2022-09-11T00:28:40.773Z,15.18
2022-09-11T00:31:15.047Z,15.23
2022-09-11T00:33:43.971Z,15.22
2022-09-11T00:36:21.379Z,15.23
2022-09-11T00:38:50.372Z,15.24
2022-09-11T00:41:36.432Z,15.26
2022-09-11T00:44:13.621Z,15.26
2022-09-11T00:46:57.457Z,15.28
2022-09-11T00:49:44.208Z,15.31
2022-09-11T00:52:38.764Z,15.32
2022-09-11T00:55:16.066Z,15.34
2022-09-11T00:57:50.233Z,15.34
2022-09-11T01:00:18.577Z,15.33
2022-09-11T01:02:50.731Z,15.34
2022-09-11T01:05:20.232Z,15.36
2022-09-11T01:07:49.169Z,15.38
2022-09-11T01:10:17.762Z,15.37
2022-09-11T01:12:46.016Z,15.38
2022-09-11T01:15:43.552Z,15.41
2022-09-11T01:18:41.206Z,15.39
2022-09-11T01:21:33.935Z,15.40
2022-09-11T01:24:29.049Z,15.39
2022-09-11T01:27:28.089Z,15.38
2022-09-11T01:30:10.841Z,15.38
2022-09-11T01:32:49.118Z,15.35
2022-09-11T01:35:34.482Z,15.35
2022-09-11T01:38:50.045Z,15.34
2022-09-11T01:41:26.948Z,15.31
2022-09-11T01:44:11.748Z,15.27
2022-09-11T01:46:45.200Z,15.22
2022-09-11T01:49:26.941Z,15.19
2022-09-11T01:52:01.189Z,15.17
2022-09-11T01:54:35.278Z,15.16
2022-09-11T01:57:26.111Z,15.15
2022-09-11T02:00:00.935Z,15.13
2022-09-11T02:02:37.471Z,15.08
2022-09-11T02:05:15.845Z,15.08
2022-09-11T02:07:58.200Z,15.06
2022-09-11T02:10:42.551Z,15.05
2022-09-11T02:13:20.413Z,15.02
2022-09-11T02:15:56.354Z,15.03
2022-09-11T02:18:49.379Z,15.01
2022-09-11T02:21:17.794Z,14.94
2022-09-11T02:23:46.204Z,14.89
2022-09-11T02:26:15.938Z,14.90
2022-09-11T02:28:44.250Z,14.88
2022-09-11T02:31:12.668Z,14.86
2022-09-11T02:33:42.040Z,14.86
2022-09-11T02:36:48.945Z,14.86
2022-09-11T02:39:46.847Z,14.82
2022-09-11T02:42:48.662Z,14.78
2022-09-11T02:45:35.639Z,14.75
2022-09-11T02:48:36.242Z,14.73
2022-09-11T02:51:40.263Z,14.71
2022-09-11T02:54:47.680Z,14.70
2022-09-11T02:57:34.831Z,14.66
2022-09-11T03:00:07.040Z,14.66
2022-09-11T03:02:37.918Z,14.64
2022-09-11T03:05:08.036Z,14.60
2022-09-11T03:07:36.398Z,14.59
2022-09-11T03:10:04.996Z,14.58
2022-09-11T03:12:35.687Z,14.54
2022-09-11T03:15:04.095Z,14.51
2022-09-11T03:17:32.828Z,14.45
2022-09-11T03:20:01.126Z,14.41
2022-09-11T03:22:29.510Z,14.40
2022-09-11T03:24:57.910Z,14.40
2022-09-11T03:27:26.292Z,14.41
2022-09-11T03:29:56.248Z,14.42
2022-09-11T03:32:24.670Z,14.42
2022-09-11T03:34:53.125Z,14.40
2022-09-11T03:37:21.525Z,14.38
2022-09-11T03:39:50.026Z,14.37
2022-09-11T03:42:18.465Z,14.34
2022-09-11T03:44:46.840Z,14.33
2022-09-11T03:47:14.947Z,14.32
2022-09-11T03:49:43.314Z,14.33
2022-09-11T03:52:11.679Z,14.33
2022-09-11T03:54:40.018Z,14.33
2022-09-11T03:57:09.663Z,14.34
2022-09-11T03:59:39.185Z,14.32
2022-09-11T04:02:07.855Z,14.31
2022-09-11T04:04:37.138Z,14.32
2022-09-11T04:07:05.575Z,14.33
2022-09-11T04:09:33.877Z,14.34
2022-09-11T04:12:02.907Z,14.38
2022-09-11T04:14:31.541Z,14.38
2022-09-11T04:17:00.023Z,14.42
2022-09-11T04:19:29.479Z,14.43
2022-09-11T04:21:57.865Z,14.48
2022-09-11T04:24:26.224Z,14.51
2022-09-11T04:26:59.970Z,14.57
2022-09-11T04:29:29.906Z,14.60
2022-09-11T04:31:58.385Z,14.61
2022-09-11T04:34:27.141Z,14.63
2022-09-11T04:36:56.547Z,14.66
2022-09-11T04:39:24.939Z,14.66
2022-09-11T04:41:54.545Z,14.65
2022-09-11T04:44:24.150Z,14.67
2022-09-11T04:46:53.119Z,14.68
2022-09-11T04:49:21.458Z,14.68
2022-09-11T04:51:49.609Z,14.68
2022-09-11T04:54:21.174Z,14.68
2022-09-11T04:56:50.000Z,14.66
2022-09-11T04:59:22.502Z,14.65
2022-09-11T05:01:52.268Z,14.62
2022-09-11T05:04:25.782Z,14.60
2022-09-11T05:06:54.808Z,14.58
2022-09-11T05:09:23.190Z,14.61
2022-09-11T05:11:51.778Z,14.62
2022-09-11T05:14:20.138Z,14.60
2022-09-11T05:16:48.635Z,14.60
2022-09-11T05:19:17.094Z,14.61
2022-09-11T05:21:45.517Z,14.63
2022-09-11T05:24:14.149Z,14.62
2022-09-11T05:26:42.446Z,14.63
2022-09-11T05:29:15.362Z,14.66
2022-09-11T05:31:44.150Z,14.67
2022-09-11T05:34:12.521Z,14.69
2022-09-11T05:36:41.529Z,14.74
2022-09-11T05:39:10.531Z,14.80
2022-09-11T05:41:38.905Z,14.84
2022-09-11T05:44:07.281Z,14.93
2022-09-11T05:46:35.599Z,14.95
2022-09-11T05:49:04.174Z,15.01
2022-09-11T05:51:35.852Z,15.07
2022-09-11T05:54:04.498Z,15.15
2022-09-11T05:56:32.889Z,15.26
2022-09-11T05:59:02.577Z,15.31
2022-09-11T06:01:31.202Z,15.27
2022-09-11T06:03:59.631Z,15.28
2022-09-11T06:06:27.729Z,15.27
2022-09-11T06:08:56.205Z,15.29
2022-09-11T06:11:24.555Z,15.37
2022-09-11T06:13:53.155Z,15.41
2022-09-11T06:16:23.763Z,15.43
2022-09-11T06:18:54.412Z,15.47
2022-09-11T06:21:26.964Z,15.44
2022-09-11T06:23:55.561Z,15.38
2022-09-11T06:26:27.169Z,15.42
2022-09-11T06:28:56.186Z,15.33
2022-09-11T06:31:27.154Z,15.26
2022-09-11T06:33:55.773Z,15.32
2022-09-11T06:36:27.802Z,15.30
2022-09-11T06:38:57.947Z,15.25
2022-09-11T06:41:28.116Z,15.19
2022-09-11T06:43:56.422Z,15.26
2022-09-11T06:46:26.587Z,15.22
2022-09-11T06:48:54.999Z,15.28
2022-09-11T06:51:24.128Z,15.26
2022-09-11T06:53:59.446Z,15.25
2022-09-11T06:56:27.924Z,15.19
2022-09-11T06:58:56.387Z,15.18
2022-09-11T07:01:25.149Z,15.16
2022-09-11T07:03:55.575Z,15.15
2022-09-11T07:06:27.360Z,15.13
2022-09-11T07:09:02.689Z,15.11
2022-09-11T07:11:34.344Z,15.16
2022-09-11T07:14:06.044Z,15.16
2022-09-11T07:16:35.104Z,15.23
2022-09-11T07:19:04.852Z,15.26
2022-09-11T07:21:34.512Z,15.26
2022-09-11T07:24:03.977Z,15.31
2022-09-11T07:26:32.419Z,15.35
2022-09-11T07:29:00.965Z,15.38
2022-09-11T07:31:32.830Z,15.42
2022-09-11T07:34:02.173Z,15.47
2022-09-11T07:36:37.486Z,15.53
2022-09-11T07:39:06.135Z,15.63
2022-09-11T07:41:34.917Z,15.71
2022-09-11T07:44:04.257Z,15.77
2022-09-11T07:46:33.148Z,15.75
2022-09-11T07:49:02.031Z,15.79
2022-09-11T07:51:30.832Z,15.86
2022-09-11T07:54:00.167Z,15.92
2022-09-11T07:56:29.115Z,16.01
2022-09-11T07:58:57.951Z,16.04
2022-09-11T08:01:32.576Z,16.09
2022-09-11T08:04:04.600Z,16.13
2022-09-11T08:06:35.886Z,16.21
2022-09-11T08:09:08.262Z,16.28
2022-09-11T08:11:48.758Z,16.32
2022-09-11T08:14:17.983Z,16.28
2022-09-11T08:16:46.705Z,16.33
2022-09-11T08:19:21.152Z,16.37
2022-09-11T08:21:49.811Z,16.36
2022-09-11T08:24:20.292Z,16.30
2022-09-11T08:26:49.317Z,16.29
2022-09-11T08:29:18.436Z,16.37
2022-09-11T08:31:47.185Z,16.41
2022-09-11T08:34:15.423Z,16.51
2022-09-11T08:36:43.782Z,16.62
2022-09-11T08:39:12.202Z,16.61
2022-09-11T08:41:42.886Z,16.62
2022-09-11T08:44:11.909Z,16.66
2022-09-11T08:46:45.907Z,16.65
2022-09-11T08:49:40.901Z,16.66
2022-09-11T08:52:15.175Z,16.67
2022-09-11T08:54:44.821Z,16.63
2022-09-11T08:57:43.721Z,16.57
2022-09-11T09:00:29.526Z,16.56
2022-09-11T09:03:56.438Z,16.55
2022-09-11T09:06:40.504Z,16.50
2022-09-11T09:09:24.443Z,16.49
2022-09-11T09:12:13.238Z,16.42
2022-09-11T09:15:02.557Z,16.36
2022-09-11T09:17:39.584Z,16.38
2022-09-11T09:20:15.091Z,16.35
2022-09-11T09:22:59.265Z,16.35
2022-09-11T09:25:28.224Z,16.32
2022-09-11T09:28:19.434Z,16.32
2022-09-11T09:31:02.843Z,16.31
2022-09-11T09:33:54.166Z,16.31
2022-09-11T09:36:31.679Z,16.35
2022-09-11T09:39:00.428Z,16.39
2022-09-11T09:41:54.547Z,16.45
2022-09-11T09:44:46.295Z,16.48
2022-09-11T09:47:15.706Z,16.45
2022-09-11T09:49:45.463Z,16.43
2022-09-11T09:52:26.979Z,16.44
2022-09-11T09:55:07.125Z,16.36
2022-09-11T09:57:39.774Z,16.39
2022-09-11T10:00:11.765Z,16.33
2022-09-11T10:02:55.038Z,16.33
2022-09-11T10:05:30.152Z,16.34
2022-09-11T10:08:05.189Z,16.31
2022-09-11T10:10:41.497Z,16.23
2022-09-11T10:13:20.854Z,16.25
2022-09-11T10:15:54.205Z,16.23
2022-09-11T10:18:32.303Z,16.31
2022-09-11T10:21:33.562Z,16.40
2022-09-11T10:24:20.826Z,16.42
2022-09-11T10:26:52.560Z,16.49
2022-09-11T10:29:25.789Z,16.57
2022-09-11T10:32:02.747Z,16.62
2022-09-11T10:34:42.127Z,16.68
2022-09-11T10:37:30.708Z,16.69
2022-09-11T10:40:09.491Z,16.71
2022-09-11T10:42:38.622Z,16.72
2022-09-11T10:45:17.001Z,16.76
2022-09-11T10:47:46.000Z,16.67
2022-09-11T10:50:24.393Z,16.66
2022-09-11T10:52:55.668Z,16.57
2022-09-11T10:55:24.540Z,16.56
2022-09-11T10:58:01.979Z,16.54
2022-09-11T11:00:32.651Z,16.49
2022-09-11T11:03:04.340Z,16.47
2022-09-11T11:05:56.317Z,16.38
2022-09-11T11:09:06.284Z,16.32
2022-09-11T11:11:40.242Z,16.26
2022-09-11T11:14:44.101Z,16.27
2022-09-11T11:17:12.419Z,16.27
2022-09-11T11:19:52.845Z,16.28
2022-09-11T11:22:34.410Z,16.28
2022-09-11T11:25:29.844Z,16.24
2022-09-11T11:28:31.854Z,16.21
2022-09-11T11:31:20.816Z,16.11
2022-09-11T11:34:14.777Z,16.03
2022-09-11T11:36:54.764Z,15.93
2022-09-11T11:39:29.485Z,15.91
2022-09-11T11:42:23.630Z,15.90
2022-09-11T11:45:01.635Z,15.88
2022-09-11T11:47:42.504Z,15.81
2022-09-11T11:50:32.996Z,15.83
2022-09-11T11:53:12.317Z,15.89
2022-09-11T11:55:52.192Z,15.99
2022-09-11T11:59:00.056Z,16.06
2022-09-11T12:01:41.965Z,16.14
2022-09-11T12:04:50.102Z,16.21
2022-09-11T12:07:27.181Z,16.17
2022-09-11T12:09:57.490Z,16.20
2022-09-11T12:12:29.496Z,16.18
2022-09-11T12:15:06.164Z,16.27
2022-09-11T12:17:39.893Z,16.41
2022-09-11T12:20:41.751Z,16.49
2022-09-11T12:23:32.553Z,16.69
2022-09-11T12:26:09.432Z,16.91
2022-09-11T12:28:38.067Z,17.06
2022-09-11T12:31:15.149Z,17.21
2022-09-11T12:33:44.246Z,17.26
2022-09-11T12:36:46.352Z,17.28
2022-09-11T12:39:55.178Z,17.27
2022-09-11T12:42:23.721Z,17.27
2022-09-11T12:44:52.068Z,17.34
2022-09-11T12:47:28.227Z,17.41
2022-09-11T12:50:05.717Z,17.41
2022-09-11T12:52:54.896Z,17.42
2022-09-11T12:55:39.697Z,17.43
2022-09-11T12:58:19.538Z,17.46
2022-09-11T13:00:54.366Z,17.51
2022-09-11T13:03:28.055Z,17.54
2022-09-11T13:06:01.138Z,17.55
2022-09-11T13:08:38.692Z,17.59
2022-09-11T13:11:44.843Z,17.61
2022-09-11T13:14:31.105Z,17.60
2022-09-11T13:17:04.874Z,17.59
2022-09-11T13:19:35.837Z,17.56
2022-09-11T13:22:08.663Z,17.56
2022-09-11T13:24:37.053Z,17.54
2022-09-11T13:27:15.771Z,17.60
2022-09-11T13:29:44.222Z,17.65
2022-09-11T13:32:16.746Z,17.75
2022-09-11T13:34:59.031Z,17.86
2022-09-11T13:37:52.256Z,18.02
2022-09-11T13:40:32.017Z,18.10
2022-09-11T13:43:02.027Z,18.11
2022-09-11T13:45:30.635Z,18.10
2022-09-11T13:47:59.284Z,18.16
2022-09-11T13:50:27.791Z,18.21
2022-09-11T13:52:56.860Z,18.25
2022-09-11T13:55:27.828Z,18.35
2022-09-11T13:58:02.248Z,18.45
2022-09-11T14:00:50.544Z,18.50
2022-09-11T14:03:32.248Z,18.53
2022-09-11T14:06:04.269Z,18.55
2022-09-11T14:08:54.980Z,18.48
2022-09-11T14:11:32.890Z,18.43
2022-09-11T14:14:34.155Z,18.39
2022-09-11T14:17:02.693Z,18.39
2022-09-11T14:19:34.891Z,18.38
2022-09-11T14:22:15.315Z,18.40
2022-09-11T14:24:57.791Z,18.42
2022-09-11T14:27:32.245Z,18.39
2022-09-11T14:30:00.647Z,18.34
2022-09-11T14:32:37.002Z,18.29
2022-09-11T14:35:11.738Z,18.22
2022-09-11T14:37:46.262Z,18.18
2022-09-11T14:40:19.794Z,18.19
2022-09-11T14:42:48.731Z,18.16
2022-09-11T14:45:24.506Z,18.15
2022-09-11T14:47:53.425Z,18.11
2022-09-11T14:50:24.773Z,18.08
2022-09-11T14:52:53.219Z,18.05
2022-09-11T14:55:21.871Z,18.03
2022-09-11T14:57:50.235Z,18.02
2022-09-11T15:00:19.966Z,18.02
2022-09-11T15:02:48.537Z,18.01
2022-09-11T15:05:24.638Z,18.01
2022-09-11T15:07:53.093Z,18.00
2022-09-11T15:10:21.952Z,18.02
2022-09-11T15:12:50.448Z,18.05
2022-09-11T15:15:19.263Z,18.06
2022-09-11T15:17:47.642Z,18.07
2022-09-11T15:20:16.204Z,18.05
2022-09-11T15:22:44.762Z,18.02
2022-09-11T15:25:13.278Z,17.97
2022-09-11T15:27:42.291Z,17.92
2022-09-11T15:30:11.178Z,17.89
2022-09-11T15:32:39.891Z,17.87
2022-09-11T15:35:08.159Z,17.89
2022-09-11T15:37:36.439Z,17.90
2022-09-11T15:40:05.124Z,17.98
2022-09-11T15:42:39.508Z,18.02
2022-09-11T15:45:08.992Z,18.04
2022-09-11T15:47:37.624Z,18.06
2022-09-11T15:50:06.825Z,18.08
2022-09-11T15:52:36.940Z,18.08
2022-09-11T15:55:06.344Z,18.11
2022-09-11T15:57:34.679Z,18.12
2022-09-11T16:00:03.532Z,18.11
2022-09-11T16:02:31.973Z,18.10
2022-09-11T16:05:01.489Z,18.09
2022-09-11T16:07:29.950Z,18.07
2022-09-11T16:09:58.970Z,18.04
2022-09-11T16:12:27.560Z,18.02
2022-09-11T16:14:55.947Z,18.01
2022-09-11T16:17:30.682Z,17.98
2022-09-11T16:19:59.496Z,17.93
2022-09-11T16:22:31.358Z,17.89
2022-09-11T16:25:00.255Z,17.84
2022-09-11T16:27:28.685Z,17.79
2022-09-11T16:30:26.195Z,17.75
2022-09-11T16:32:46.164Z,17.72
2022-09-11T16:35:14.622Z,17.69
2022-09-11T16:37:43.683Z,17.66
2022-09-11T16:40:12.344Z,17.63
2022-09-11T16:42:40.989Z,17.62
2022-09-11T16:45:09.631Z,17.58
2022-09-11T16:47:38.049Z,17.55
2022-09-11T16:50:08.541Z,17.51
2022-09-11T16:52:37.304Z,17.48
2022-09-11T16:55:09.564Z,17.45
2022-09-11T16:57:38.222Z,17.43
2022-09-11T17:00:08.190Z,17.40
2022-09-11T17:02:37.582Z,17.37
2022-09-11T17:05:08.237Z,17.35
2022-09-11T17:07:37.144Z,17.33
2022-09-11T17:10:05.878Z,17.29
2022-09-11T17:12:34.291Z,17.24
2022-09-11T17:15:02.734Z,17.19
2022-09-11T17:17:31.306Z,17.12
2022-09-11T17:19:59.814Z,17.06
2022-09-11T17:22:29.744Z,17.00
2022-09-11T17:24:58.204Z,16.97
2022-09-11T17:27:27.460Z,16.94
2022-09-11T17:29:56.069Z,16.90
2022-09-11T17:32:28.251Z,16.89
2022-09-11T17:34:58.509Z,16.87
2022-09-11T17:37:27.573Z,16.87
2022-09-11T17:39:56.076Z,16.85
2022-09-11T17:42:24.938Z,16.85
2022-09-11T17:44:53.393Z,16.82
2022-09-11T17:47:21.831Z,16.81
2022-09-11T17:49:50.847Z,16.80
2022-09-11T17:52:20.385Z,16.80
2022-09-11T17:54:49.066Z,16.80
2022-09-11T17:57:17.366Z,16.81
2022-09-11T17:59:45.749Z,16.82
2022-09-11T18:02:15.167Z,16.85
2022-09-11T18:04:44.278Z,16.87
2022-09-11T18:07:12.814Z,16.89
2022-09-11T18:09:41.387Z,16.88
2022-09-11T18:12:10.094Z,16.86
2022-09-11T18:14:40.025Z,16.87
2022-09-11T18:17:08.702Z,16.82
2022-09-11T18:19:38.932Z,16.81
2022-09-11T18:22:09.749Z,16.80
2022-09-11T18:24:39.866Z,16.81
2022-09-11T18:27:09.972Z,16.82
2022-09-11T18:29:39.958Z,16.84
2022-09-11T18:32:10.178Z,16.84
2022-09-11T18:34:39.181Z,16.84
2022-09-11T18:37:08.700Z,16.87
2022-09-11T18:39:38.499Z,16.86
2022-09-11T18:42:07.755Z,16.83
2022-09-11T18:44:36.213Z,16.83
2022-09-11T18:47:04.580Z,16.82
2022-09-11T18:49:34.943Z,16.79
2022-09-11T18:52:03.308Z,16.77
2022-09-11T18:54:32.101Z,16.73
2022-09-11T18:57:00.506Z,16.71
2022-09-11T18:59:29.115Z,16.67
2022-09-11T19:01:58.029Z,16.63
2022-09-11T19:04:27.309Z,16.60
2022-09-11T19:06:55.648Z,16.57
2022-09-11T19:09:23.964Z,16.52
2022-09-11T19:11:54.813Z,16.49
2022-09-11T19:14:23.180Z,16.48
2022-09-11T19:16:51.719Z,16.44
2022-09-11T19:19:20.128Z,16.40
2022-09-11T19:21:48.673Z,16.37
2022-09-11T19:24:17.162Z,16.33
2022-09-11T19:26:45.913Z,16.30
2022-09-11T19:29:15.901Z,16.25
2022-09-11T19:31:44.657Z,16.18
2022-09-11T19:34:13.812Z,16.14
2022-09-11T19:36:42.657Z,16.08
2022-09-11T19:39:12.375Z,16.04
2022-09-11T19:41:41.317Z,15.99
2022-09-11T19:44:13.227Z,15.96
2022-09-11T19:46:46.114Z,15.92
2022-09-11T19:49:14.540Z,15.87
2022-09-11T19:51:45.119Z,15.84
2022-09-11T19:54:14.838Z,15.77
2022-09-11T19:56:45.167Z,15.73
2022-09-11T19:59:14.628Z,15.68
2022-09-11T20:01:43.175Z,15.61
2022-09-11T20:04:13.595Z,15.56
2022-09-11T20:09:30.480Z,15.45
2022-09-11T20:12:00.691Z,15.42
2022-09-11T20:14:30.251Z,15.39
2022-09-11T20:17:00.426Z,15.38
2022-09-11T20:19:29.194Z,15.34
2022-09-11T20:21:57.735Z,15.31
2022-09-11T20:24:26.340Z,15.26
2022-09-11T20:26:55.057Z,15.21
2022-09-11T20:29:23.500Z,15.16
2022-09-11T20:31:51.538Z,15.11
2022-09-11T20:34:22.184Z,15.11
2022-09-11T20:36:50.644Z,15.06
2022-09-11T20:39:20.228Z,15.04
2022-09-11T20:41:48.668Z,15.01
2022-09-11T20:44:17.172Z,15.01
2022-09-11T20:46:47.554Z,14.99
2022-09-11T20:49:16.117Z,14.97
2022-09-11T20:51:44.744Z,14.95
2022-09-11T20:54:13.203Z,14.93
2022-09-11T20:56:41.706Z,14.94
2022-09-11T20:59:10.128Z,14.97
2022-09-11T21:01:38.526Z,14.97
2022-09-11T21:04:07.105Z,14.97
2022-09-11T21:06:36.717Z,14.98
2022-09-11T21:09:11.002Z,14.99
2022-09-11T21:11:41.180Z,14.99
2022-09-11T21:14:09.567Z,14.96
2022-09-11T21:16:38.212Z,14.96
2022-09-11T21:19:07.400Z,14.95
2022-09-11T21:21:37.933Z,14.97
2022-09-11T21:24:10.035Z,14.92
2022-09-11T21:26:38.908Z,14.88
2022-09-11T21:29:10.427Z,14.89
2022-09-11T21:31:39.619Z,14.86
2022-09-11T21:34:08.097Z,14.85
2022-09-11T21:36:37.051Z,14.85
2022-09-11T21:39:06.610Z,14.87
2022-09-11T21:41:35.239Z,14.91
2022-09-11T21:44:03.655Z,14.93
2022-09-11T21:46:32.084Z,14.98
2022-09-11T21:49:01.698Z,14.99
2022-09-11T21:51:30.175Z,15.00
2022-09-11T21:54:01.662Z,15.01
2022-09-11T21:56:32.941Z,15.01
2022-09-11T21:59:01.876Z,15.02
2022-09-11T22:01:32.899Z,15.02
2022-09-11T22:04:01.668Z,14.98
2022-09-11T22:06:31.174Z,14.94
2022-09-11T22:09:00.268Z,14.88
2022-09-11T22:11:28.761Z,14.85
2022-09-11T22:13:57.169Z,14.82
2022-09-11T22:16:25.539Z,14.82
2022-09-11T22:18:55.479Z,14.81
2022-09-11T22:21:24.196Z,14.80
2022-09-11T22:23:52.788Z,14.80
2022-09-11T22:26:23.831Z,14.81
2022-09-11T22:28:53.416Z,14.84
2022-09-11T22:31:24.820Z,14.82
2022-09-11T22:33:54.102Z,14.81
2022-09-11T22:36:32.244Z,14.80
2022-09-11T22:39:00.876Z,14.79
2022-09-11T22:41:29.441Z,14.82
2022-09-11T22:43:57.817Z,14.85
2022-09-11T22:46:26.943Z,14.88
2022-09-11T22:48:55.896Z,14.94
2022-09-11T22:51:24.416Z,14.98
2022-09-11T22:53:53.007Z,15.02
2022-09-11T22:56:21.932Z,15.05
2022-09-11T22:58:50.804Z,15.08
2022-09-11T23:01:22.338Z,15.09
2022-09-11T23:03:52.168Z,15.13
2022-09-11T23:06:38.306Z,15.15
2022-09-11T23:09:09.408Z,15.17
2022-09-11T23:11:37.927Z,15.19
2022-09-11T23:14:11.869Z,15.19
2022-09-11T23:16:42.728Z,15.20
2022-09-11T23:19:14.890Z,15.18
2022-09-11T23:21:43.570Z,15.13
2022-09-11T23:24:14.603Z,15.09
2022-09-11T23:26:43.710Z,15.04
2022-09-11T23:29:13.210Z,15.04
2022-09-11T23:31:41.785Z,15.02
2022-09-11T23:34:15.766Z,15.04
2022-09-11T23:36:44.659Z,15.06
2022-09-11T23:39:15.969Z,15.07
2022-09-11T23:41:44.363Z,15.08
2022-09-11T23:44:12.826Z,15.08
2022-09-11T23:46:41.386Z,15.08
2022-09-11T23:49:11.240Z,15.04
2022-09-11T23:51:39.739Z,15.02
2022-09-11T23:54:08.123Z,15.00
2022-09-11T23:56:36.494Z,14.99
2022-09-11T23:59:04.879Z,14.98
